createdAt,value
2018-06-11T00:03:56.079Z,12.40
2018-06-11T00:07:59.505Z,13.50
2018-06-11T00:12:02.948Z,11.00
2018-06-11T00:16:06.413Z,13.65
2018-06-11T00:20:09.943Z,12.55
2018-06-11T00:24:13.403Z,14.47
2018-06-11T00:28:16.845Z,16.17
2018-06-11T00:32:20.438Z,16.07
2018-06-11T00:36:23.820Z,12.33
2018-06-11T00:40:27.310Z,12.80
2018-06-11T00:44:30.746Z,15.15
2018-06-11T00:48:34.178Z,13.80
2018-06-11T00:52:37.654Z,13.30
2018-06-11T00:56:41.085Z,15.03
2018-06-11T01:00:44.537Z,15.13
2018-06-11T01:04:48.023Z,15.08
2018-06-11T01:08:51.446Z,14.73
2018-06-11T01:12:54.904Z,13.28
2018-06-11T01:16:58.354Z,13.32
2018-06-11T01:21:01.783Z,13.35
2018-06-11T01:25:05.285Z,12.37
2018-06-11T01:29:08.742Z,13.28
2018-06-11T01:33:12.199Z,15.18
2018-06-11T01:37:15.654Z,12.05
2018-06-11T01:41:19.094Z,13.00
2018-06-11T01:45:22.537Z,13.32
2018-06-11T01:49:26.014Z,12.85
2018-06-11T01:53:29.459Z,13.22
2018-06-11T01:57:34.001Z,13.32
2018-06-11T02:01:37.462Z,13.58
2018-06-11T02:05:40.974Z,13.62
2018-06-11T02:09:44.478Z,14.95
2018-06-11T02:13:47.915Z,15.83
2018-06-11T02:17:51.381Z,14.07
2018-06-11T02:21:54.862Z,14.80
2018-06-11T02:25:58.307Z,14.87
2018-06-11T02:30:01.735Z,13.65
2018-06-11T02:34:05.184Z,13.70
2018-06-11T02:38:08.660Z,13.88
2018-06-11T02:42:12.132Z,13.95
2018-06-11T02:46:15.592Z,14.43
2018-06-11T02:50:19.002Z,12.95
2018-06-11T02:54:22.489Z,13.17
2018-06-11T02:58:25.972Z,14.05
2018-06-11T03:02:29.409Z,13.80
2018-06-11T03:06:32.915Z,14.10
2018-06-11T03:10:36.346Z,13.20
2018-06-11T03:14:39.956Z,13.87
2018-06-11T03:18:43.431Z,13.70
2018-06-11T03:22:46.914Z,13.78
2018-06-11T03:26:50.375Z,12.90
2018-06-11T03:30:53.864Z,13.77
2018-06-11T03:34:57.322Z,13.83
2018-06-11T03:39:00.794Z,13.70
2018-06-11T03:43:04.383Z,14.77
2018-06-11T03:47:07.802Z,14.53
2018-06-11T03:51:12.196Z,15.30
2018-06-11T03:55:15.608Z,14.77
2018-06-11T03:59:19.069Z,14.70
2018-06-11T04:03:22.519Z,14.40
2018-06-11T04:07:26.011Z,13.70
2018-06-11T04:11:29.464Z,13.60
2018-06-11T04:15:32.969Z,14.45
2018-06-11T04:19:36.420Z,13.13
2018-06-11T04:23:39.867Z,13.93
2018-06-11T04:27:43.431Z,13.33
2018-06-11T04:31:46.861Z,14.18
2018-06-11T04:35:50.309Z,13.78
2018-06-11T04:39:53.768Z,14.00
2018-06-11T04:43:57.197Z,13.32
2018-06-11T04:48:00.676Z,12.27
2018-06-11T04:52:04.115Z,13.67
2018-06-11T04:56:07.603Z,13.60
2018-06-11T05:00:11.040Z,12.93
2018-06-11T05:04:14.482Z,13.55
2018-06-11T05:08:17.953Z,14.93
2018-06-11T05:12:21.384Z,12.75
2018-06-11T05:16:24.846Z,12.37
2018-06-11T05:20:28.316Z,12.90
2018-06-11T05:24:31.736Z,11.48
2018-06-11T05:28:41.509Z,11.38
2018-06-11T05:32:44.895Z,11.30
2018-06-11T05:36:48.332Z,11.75
2018-06-11T05:40:51.738Z,11.08
2018-06-11T05:44:55.171Z,10.98
2018-06-11T05:48:58.603Z,10.23
2018-06-11T05:53:02.075Z,13.58
2018-06-11T05:57:05.785Z,10.13
2018-06-11T06:01:09.255Z,12.15
2018-06-11T06:05:12.709Z,10.50
2018-06-11T06:09:16.152Z,9.95
2018-06-11T06:13:19.598Z,9.53
2018-06-11T06:17:23.051Z,9.45
2018-06-11T06:21:26.478Z,9.68
2018-06-11T06:25:29.904Z,9.75
2018-06-11T06:29:33.314Z,9.63
2018-06-11T06:33:36.758Z,10.13
2018-06-11T06:37:40.226Z,11.55
2018-06-11T06:41:43.681Z,11.53
2018-06-11T06:45:47.081Z,8.83
2018-06-11T06:49:50.514Z,9.08
2018-06-11T06:53:53.998Z,12.85
2018-06-11T06:57:57.505Z,11.18
2018-06-11T07:02:00.917Z,11.45
2018-06-11T07:06:04.368Z,9.68
2018-06-11T07:10:07.931Z,9.30
2018-06-11T07:14:11.374Z,10.15
2018-06-11T07:18:14.805Z,10.65
2018-06-11T07:22:18.257Z,11.40
2018-06-11T07:26:21.685Z,8.75
2018-06-11T07:30:25.127Z,12.18
2018-06-11T07:34:28.531Z,9.95
2018-06-11T07:38:31.980Z,11.10
2018-06-11T07:42:35.391Z,8.93
2018-06-11T07:46:38.831Z,10.68
2018-06-11T07:50:42.296Z,10.65
2018-06-11T07:54:45.742Z,12.95
2018-06-11T07:58:49.231Z,10.78
2018-06-11T08:02:52.707Z,11.85
2018-06-11T08:06:56.194Z,13.40
2018-06-11T08:10:59.643Z,11.08
2018-06-11T08:15:03.061Z,10.75
2018-06-11T08:19:06.559Z,10.40
2018-06-11T08:23:10.021Z,9.88
2018-06-11T08:27:13.483Z,11.12
2018-06-11T08:31:16.939Z,10.08
2018-06-11T08:35:20.402Z,10.63
2018-06-11T08:39:23.867Z,9.60
2018-06-11T08:43:27.316Z,9.55
2018-06-11T08:47:30.775Z,10.55
2018-06-11T08:51:34.199Z,9.98
2018-06-11T08:55:37.655Z,10.48
2018-06-11T08:59:41.085Z,10.72
2018-06-11T09:03:44.522Z,11.12
2018-06-11T09:07:47.997Z,8.90
2018-06-11T09:11:51.404Z,9.83
2018-06-11T09:15:54.854Z,10.08
2018-06-11T09:19:58.267Z,8.63
2018-06-11T09:24:01.786Z,8.65
2018-06-11T09:28:05.179Z,9.50
2018-06-11T09:32:08.632Z,7.83
2018-06-11T09:36:12.455Z,10.20
2018-06-11T09:40:15.931Z,8.73
2018-06-11T09:44:19.384Z,8.93
2018-06-11T09:48:22.836Z,7.95
2018-06-11T09:52:26.283Z,6.30
2018-06-11T09:56:29.739Z,7.20
2018-06-11T10:00:36.187Z,7.92
2018-06-11T10:04:39.647Z,7.47
2018-06-11T10:08:43.118Z,7.83
2018-06-11T10:12:46.569Z,8.10
2018-06-11T10:16:50.002Z,8.50
2018-06-11T10:20:53.480Z,8.33
2018-06-11T10:24:56.921Z,8.53
2018-06-11T10:29:00.418Z,7.83
2018-06-11T10:33:03.847Z,7.78
2018-06-11T10:37:07.278Z,8.25
2018-06-11T10:41:10.709Z,7.97
2018-06-11T10:45:14.145Z,8.00
2018-06-11T10:49:17.595Z,8.00
2018-06-11T10:53:21.029Z,8.63
2018-06-11T10:57:24.466Z,8.38
2018-06-11T11:01:27.902Z,8.55
2018-06-11T11:05:31.350Z,8.35
2018-06-11T11:09:34.797Z,8.98
2018-06-11T11:13:38.233Z,7.90
2018-06-11T11:17:41.660Z,9.38
2018-06-11T11:21:45.110Z,8.40
2018-06-11T11:25:48.618Z,8.60
2018-06-11T11:29:52.032Z,7.55
2018-06-11T11:33:55.467Z,7.35
2018-06-11T11:37:58.893Z,7.78
2018-06-11T11:42:02.326Z,8.33
2018-06-11T11:46:05.834Z,7.50
2018-06-11T11:50:09.368Z,12.20
2018-06-11T11:54:12.880Z,7.70
2018-06-11T11:58:16.302Z,8.75
2018-06-11T12:02:19.722Z,6.67
2018-06-11T12:06:23.202Z,9.43
2018-06-11T12:10:26.664Z,7.05
2018-06-11T12:14:30.112Z,6.92
2018-06-11T12:18:33.535Z,7.10
2018-06-11T12:22:36.934Z,7.12
2018-06-11T12:26:40.382Z,6.97
2018-06-11T12:30:43.827Z,14.20
2018-06-11T12:34:47.230Z,8.65
2018-06-11T12:38:50.688Z,7.70
2018-06-11T12:42:54.167Z,8.25
2018-06-11T12:46:57.616Z,7.83
2018-06-11T12:51:01.010Z,7.30
2018-06-11T12:55:04.485Z,6.85
2018-06-11T12:59:07.946Z,7.05
2018-06-11T13:03:11.385Z,10.50
2018-06-11T13:07:14.822Z,7.17
2018-06-11T13:11:18.231Z,6.05
2018-06-11T13:15:21.705Z,6.58
2018-06-11T13:19:25.129Z,8.73
2018-06-11T13:23:28.592Z,5.55
2018-06-11T13:27:32.056Z,6.58
2018-06-11T13:31:35.484Z,6.37
2018-06-11T13:35:38.967Z,5.60
2018-06-11T13:39:42.425Z,5.65
2018-06-11T13:43:46.674Z,7.37
2018-06-11T13:47:50.147Z,7.50
2018-06-11T13:51:53.594Z,7.00
2018-06-11T13:55:57.067Z,6.60
2018-06-11T14:00:00.500Z,7.12
2018-06-11T14:04:03.991Z,7.45
2018-06-11T14:08:07.512Z,8.83
2018-06-11T14:12:10.974Z,7.62
2018-06-11T14:16:14.498Z,7.22
2018-06-11T14:20:17.946Z,7.67
2018-06-11T14:24:21.363Z,7.40
2018-06-11T14:28:24.783Z,8.58
2018-06-11T14:32:28.233Z,6.60
2018-06-11T14:36:31.679Z,7.60
2018-06-11T14:40:35.111Z,7.00
2018-06-11T14:44:38.552Z,7.15
2018-06-11T14:48:42.021Z,6.60
2018-06-11T14:52:45.502Z,7.62
2018-06-11T14:56:48.951Z,9.65
2018-06-11T15:00:52.396Z,8.03
2018-06-11T15:04:55.869Z,7.42
2018-06-11T15:08:59.290Z,7.53
2018-06-11T15:13:02.798Z,8.68
2018-06-11T15:17:06.261Z,10.10
2018-06-11T15:21:09.687Z,7.70
2018-06-11T15:25:13.131Z,7.83
2018-06-11T15:29:16.597Z,7.05
2018-06-11T15:33:20.004Z,7.53
2018-06-11T15:37:23.493Z,7.92
2018-06-11T15:41:26.932Z,7.80
2018-06-11T15:45:30.407Z,8.33
2018-06-11T15:49:33.895Z,7.80
2018-06-11T15:53:37.366Z,7.92
2018-06-11T15:57:40.832Z,7.97
2018-06-11T16:01:44.228Z,8.13
2018-06-11T16:05:47.671Z,9.68
2018-06-11T16:09:51.155Z,9.75
2018-06-11T16:13:54.624Z,8.63
2018-06-11T16:17:58.101Z,8.25
2018-06-11T16:22:01.552Z,7.78
2018-06-11T16:26:05.012Z,9.85
2018-06-11T16:30:08.475Z,8.13
2018-06-11T16:34:11.910Z,8.55
2018-06-11T16:38:15.386Z,11.90
2018-06-11T16:42:18.820Z,8.68
2018-06-11T16:46:22.320Z,10.75
2018-06-11T16:50:25.790Z,8.40
2018-06-11T16:54:29.236Z,8.88
2018-06-11T16:58:32.745Z,9.98
2018-06-11T17:02:36.162Z,8.63
2018-06-11T17:06:39.606Z,8.73
2018-06-11T17:10:43.201Z,11.08
2018-06-11T17:14:47.851Z,8.78
2018-06-11T17:18:51.334Z,10.35
2018-06-11T17:22:54.779Z,10.35
2018-06-11T17:26:58.271Z,9.23
2018-06-11T17:31:01.721Z,10.90
2018-06-11T17:35:05.129Z,11.68
2018-06-11T17:39:08.666Z,9.20
2018-06-11T17:43:12.102Z,8.65
2018-06-11T17:47:15.553Z,8.00
2018-06-11T17:51:19.019Z,8.60
2018-06-11T17:55:22.486Z,8.33
2018-06-11T17:59:25.940Z,9.05
2018-06-11T18:03:29.407Z,10.80
2018-06-11T18:07:32.898Z,9.60
2018-06-11T18:11:36.679Z,9.10
2018-06-11T18:15:40.134Z,8.85
2018-06-11T18:19:43.563Z,8.80
2018-06-11T18:23:47.030Z,9.80
2018-06-11T18:27:50.537Z,9.18
2018-06-11T18:31:53.962Z,10.20
2018-06-11T18:35:57.447Z,9.18
2018-06-11T18:40:00.830Z,9.03
2018-06-11T18:44:04.475Z,9.88
2018-06-11T18:48:07.939Z,8.70
2018-06-11T18:52:11.360Z,10.13
2018-06-11T18:56:14.794Z,8.83
2018-06-11T19:00:18.221Z,8.05
2018-06-11T19:04:21.628Z,9.10
2018-06-11T19:08:25.108Z,8.93
2018-06-11T19:12:28.570Z,10.30
2018-06-11T19:16:32.011Z,10.32
2018-06-11T19:20:35.457Z,8.80
2018-06-11T19:24:38.891Z,9.18
2018-06-11T19:28:42.337Z,9.00
2018-06-11T19:32:45.792Z,7.85
2018-06-11T19:36:49.232Z,8.43
2018-06-11T19:40:52.719Z,10.93
2018-06-11T19:44:56.099Z,8.10
2018-06-11T19:48:59.540Z,8.63
2018-06-11T19:53:03.015Z,9.60
2018-06-11T19:57:06.439Z,8.53
2018-06-11T20:01:09.896Z,9.33
2018-06-11T20:05:13.409Z,10.58
2018-06-11T20:09:16.844Z,9.98
2018-06-11T20:13:20.308Z,9.20
2018-06-11T20:17:23.766Z,8.93
2018-06-11T20:21:27.211Z,10.70
2018-06-11T20:25:30.635Z,9.13
2018-06-11T20:29:34.088Z,8.88
2018-06-11T20:33:37.513Z,10.00
2018-06-11T20:37:40.991Z,10.38
2018-06-11T20:41:44.448Z,9.98
2018-06-11T20:45:47.896Z,10.28
2018-06-11T20:49:51.348Z,11.55
2018-06-11T20:53:54.787Z,9.38
2018-06-11T20:57:58.279Z,10.05
2018-06-11T21:02:01.752Z,10.13
2018-06-11T21:06:05.186Z,9.83
2018-06-11T21:10:08.745Z,9.90
2018-06-11T21:14:12.152Z,10.03
2018-06-11T21:18:15.595Z,9.98
2018-06-11T21:22:19.067Z,10.23
2018-06-11T21:26:22.493Z,10.63
2018-06-11T21:30:25.963Z,10.90
2018-06-11T21:34:29.410Z,10.48
2018-06-11T21:38:32.846Z,10.13
2018-06-11T21:42:36.289Z,11.38
2018-06-11T21:46:39.717Z,9.48
2018-06-11T21:50:43.194Z,9.65
2018-06-11T21:54:46.646Z,9.58
2018-06-11T21:58:50.101Z,10.30
2018-06-11T22:02:53.568Z,9.33
2018-06-11T22:06:56.999Z,9.48
2018-06-11T22:11:00.499Z,8.75
2018-06-11T22:15:03.948Z,8.83
2018-06-11T22:19:07.407Z,9.93
2018-06-11T22:23:10.846Z,9.30
2018-06-11T22:27:14.286Z,10.23
2018-06-11T22:31:17.837Z,9.05
2018-06-11T22:35:21.246Z,9.05
2018-06-11T22:39:24.702Z,9.05
2018-06-11T22:43:28.167Z,10.40
2018-06-11T22:47:31.604Z,10.48
2018-06-11T22:51:35.100Z,11.12
2018-06-11T22:55:38.577Z,9.33
2018-06-11T22:59:42.019Z,9.98
2018-06-11T23:03:45.436Z,9.95
2018-06-11T23:07:48.869Z,9.40
2018-06-11T23:11:52.329Z,10.28
2018-06-11T23:15:55.758Z,10.63
2018-06-11T23:19:59.194Z,9.25
2018-06-11T23:24:02.688Z,9.78
2018-06-11T23:28:06.075Z,9.48
2018-06-11T23:32:09.474Z,10.85
2018-06-11T23:36:12.949Z,9.80
2018-06-11T23:40:16.397Z,10.28
2018-06-11T23:44:19.854Z,9.68
2018-06-11T23:48:23.259Z,10.35
2018-06-11T23:52:26.712Z,9.53
2018-06-11T23:56:30.132Z,9.73
